createdAt,value
2022-11-25T00:01:30.455Z,3.85
2022-11-25T00:03:58.850Z,5.00
2022-11-25T00:06:28.047Z,3.95
2022-11-25T00:08:59.946Z,3.15
2022-11-25T00:11:27.208Z,4.20
2022-11-25T00:13:54.762Z,4.25
2022-11-25T00:16:23.626Z,3.45
2022-11-25T00:18:52.811Z,3.72
2022-11-25T00:21:22.038Z,4.35
2022-11-25T00:24:00.185Z,3.55
2022-11-25T00:26:28.387Z,3.85
2022-11-25T00:28:57.571Z,4.25
2022-11-25T00:31:26.735Z,2.95
2022-11-25T00:33:53.988Z,2.55
2022-11-25T00:36:26.394Z,3.70
2022-11-25T00:39:01.561Z,4.07
2022-11-25T00:41:47.806Z,3.90
2022-11-25T00:44:38.621Z,4.47
2022-11-25T00:47:11.819Z,3.80
2022-11-25T00:49:40.300Z,3.75
2022-11-25T00:52:08.067Z,3.72
2022-11-25T00:54:34.986Z,4.57
2022-11-25T00:57:02.145Z,4.30
2022-11-25T00:59:28.799Z,3.38
2022-11-25T01:01:56.432Z,3.63
2022-11-25T01:04:24.284Z,2.92
2022-11-25T01:06:51.018Z,4.22
2022-11-25T01:09:17.656Z,4.35
2022-11-25T01:11:44.309Z,3.78
2022-11-25T01:14:11.326Z,3.58
2022-11-25T01:16:38.076Z,3.58
2022-11-25T01:19:05.166Z,3.80
2022-11-25T01:21:33.704Z,3.50
2022-11-25T01:24:01.517Z,4.03
2022-11-25T01:26:29.638Z,3.78
2022-11-25T01:28:59.860Z,4.40
2022-11-25T01:31:28.647Z,3.20
2022-11-25T01:34:01.391Z,4.15
2022-11-25T01:36:28.582Z,3.42
2022-11-25T01:38:57.895Z,3.75
2022-11-25T01:41:27.175Z,4.15
2022-11-25T01:44:16.870Z,3.80
2022-11-25T01:47:07.063Z,4.15
2022-11-25T01:49:39.919Z,4.28
2022-11-25T01:52:29.934Z,3.95
2022-11-25T01:55:21.524Z,4.05
2022-11-25T01:57:54.272Z,3.72
2022-11-25T02:00:21.706Z,3.90
2022-11-25T02:02:50.950Z,3.72
2022-11-25T02:05:21.101Z,4.75
2022-11-25T02:07:49.574Z,3.58
2022-11-25T02:10:36.694Z,3.45
2022-11-25T02:13:03.498Z,3.53
2022-11-25T02:15:33.427Z,2.78
2022-11-25T02:18:00.246Z,3.15
2022-11-25T02:20:26.985Z,3.50
2022-11-25T02:23:08.281Z,3.17
2022-11-25T02:25:37.618Z,3.00
2022-11-25T02:28:16.652Z,3.13
2022-11-25T02:30:44.334Z,2.72
2022-11-25T02:33:11.298Z,2.90
2022-11-25T02:35:58.550Z,2.60
2022-11-25T02:38:39.406Z,2.15
2022-11-25T02:41:07.946Z,2.75
2022-11-25T02:43:34.709Z,2.30
2022-11-25T02:46:06.066Z,2.60
2022-11-25T02:49:06.786Z,2.80
2022-11-25T02:51:25.674Z,2.03
2022-11-25T02:53:52.347Z,1.85
2022-11-25T02:56:23.494Z,2.22
2022-11-25T02:58:50.180Z,2.20
2022-11-25T03:01:17.234Z,1.98
2022-11-25T03:03:43.907Z,1.75
2022-11-25T03:06:10.656Z,2.05
2022-11-25T03:08:38.436Z,2.08
2022-11-25T03:11:05.766Z,1.65
2022-11-25T03:13:32.586Z,1.77
2022-11-25T03:15:59.584Z,1.52
2022-11-25T03:18:26.339Z,1.73
2022-11-25T03:20:54.250Z,2.00
2022-11-25T03:23:21.434Z,1.92
2022-11-25T03:25:48.135Z,1.55
2022-11-25T03:28:15.184Z,2.75
2022-11-25T03:30:42.917Z,2.20
2022-11-25T03:33:09.720Z,2.70
2022-11-25T03:35:36.507Z,2.35
2022-11-25T03:38:03.150Z,2.15
2022-11-25T03:40:29.898Z,2.90
2022-11-25T03:42:56.558Z,2.95
2022-11-25T03:45:23.380Z,2.53
2022-11-25T03:47:50.045Z,2.92
2022-11-25T03:50:17.066Z,2.80
2022-11-25T03:52:44.105Z,3.42
2022-11-25T03:55:13.291Z,2.40
2022-11-25T03:57:40.584Z,2.20
2022-11-25T04:00:08.543Z,2.15
2022-11-25T04:02:35.200Z,2.08
2022-11-25T04:05:03.274Z,1.90
2022-11-25T04:07:30.173Z,1.58
2022-11-25T04:09:57.082Z,1.70
2022-11-25T04:12:42.254Z,1.92
2022-11-25T04:17:35.834Z,1.38
2022-11-25T04:20:02.783Z,1.42
2022-11-25T04:22:30.775Z,1.50
2022-11-25T04:24:57.557Z,1.65
2022-11-25T04:27:24.430Z,1.60
2022-11-25T04:29:51.170Z,1.83
2022-11-25T04:32:17.915Z,1.13
2022-11-25T04:34:44.512Z,1.38
2022-11-25T04:37:11.408Z,1.35
2022-11-25T04:39:38.406Z,1.38
2022-11-25T04:42:23.664Z,1.45
2022-11-25T04:45:14.052Z,1.45
2022-11-25T04:47:37.602Z,1.65
2022-11-25T04:50:11.858Z,1.55
2022-11-25T04:52:38.750Z,1.30
2022-11-25T04:55:05.883Z,1.38
2022-11-25T04:57:32.473Z,1.90
2022-11-25T04:59:59.067Z,1.85
2022-11-25T05:02:27.320Z,1.60
2022-11-25T05:04:56.694Z,2.00
2022-11-25T05:07:26.375Z,1.85
2022-11-25T05:09:53.407Z,2.10
2022-11-25T05:12:23.233Z,1.08
2022-11-25T05:14:49.986Z,1.80
2022-11-25T05:17:19.697Z,2.10
2022-11-25T05:19:46.422Z,1.65
2022-11-25T05:22:14.935Z,2.13
2022-11-25T05:24:41.523Z,1.55
2022-11-25T05:27:08.454Z,2.47
2022-11-25T05:29:35.291Z,2.53
2022-11-25T05:32:01.916Z,2.50
2022-11-25T05:34:28.702Z,1.80
2022-11-25T05:36:55.526Z,2.22
2022-11-25T05:39:22.438Z,2.08
2022-11-25T05:41:49.230Z,2.08
2022-11-25T05:44:21.217Z,2.40
2022-11-25T05:46:49.737Z,2.35
2022-11-25T05:49:17.661Z,1.95
2022-11-25T05:51:44.870Z,2.17
2022-11-25T05:54:11.851Z,2.90
2022-11-25T05:56:38.822Z,2.53
2022-11-25T05:59:05.533Z,2.45
2022-11-25T06:01:33.250Z,2.85
2022-11-25T06:04:01.452Z,3.50
2022-11-25T06:06:28.255Z,2.90
2022-11-25T06:08:54.890Z,2.28
2022-11-25T06:11:21.538Z,3.38
2022-11-25T06:13:48.551Z,2.70
2022-11-25T06:16:19.027Z,2.70
2022-11-25T06:18:45.878Z,3.38
2022-11-25T06:21:12.695Z,2.67
2022-11-25T06:23:39.657Z,2.58
2022-11-25T06:26:21.892Z,2.95
2022-11-25T06:28:52.183Z,3.20
2022-11-25T06:31:21.523Z,3.03
2022-11-25T06:33:54.210Z,2.20
2022-11-25T06:36:22.254Z,2.50
2022-11-25T06:38:51.819Z,3.08
2022-11-25T06:41:18.990Z,3.35
2022-11-25T06:43:47.966Z,2.97
2022-11-25T06:46:22.767Z,2.70
2022-11-25T06:48:51.852Z,2.67
2022-11-25T06:51:19.103Z,2.78
2022-11-25T06:53:46.194Z,3.25
2022-11-25T06:56:16.482Z,2.60
2022-11-25T06:58:44.443Z,2.65
2022-11-25T07:01:19.973Z,3.08
2022-11-25T07:03:50.276Z,3.33
2022-11-25T07:06:18.921Z,3.78
2022-11-25T07:08:46.332Z,3.10
2022-11-25T07:11:26.298Z,3.78
2022-11-25T07:13:58.020Z,3.53
2022-11-25T07:16:25.283Z,3.67
2022-11-25T07:18:52.592Z,4.10
2022-11-25T07:21:22.408Z,3.85
2022-11-25T07:23:50.220Z,3.60
2022-11-25T07:26:26.023Z,3.67
2022-11-25T07:28:55.185Z,3.88
2022-11-25T07:31:28.264Z,3.80
2022-11-25T07:34:01.299Z,3.85
2022-11-25T07:36:29.913Z,3.30
2022-11-25T07:38:58.958Z,3.42
2022-11-25T07:41:26.937Z,3.65
2022-11-25T07:44:03.096Z,3.13
2022-11-25T07:46:36.589Z,3.55
2022-11-25T07:49:06.862Z,4.03
2022-11-25T07:51:35.257Z,3.80
2022-11-25T07:54:03.862Z,3.08
2022-11-25T07:56:30.703Z,3.63
2022-11-25T07:58:57.951Z,2.78
2022-11-25T08:01:25.150Z,2.90
2022-11-25T08:03:53.689Z,3.15
2022-11-25T08:06:24.351Z,3.13
2022-11-25T08:08:55.696Z,3.20
2022-11-25T08:11:28.420Z,4.10
2022-11-25T08:13:55.563Z,2.33
2022-11-25T08:16:23.874Z,2.58
2022-11-25T08:18:50.991Z,3.20
2022-11-25T08:21:18.521Z,3.05
2022-11-25T08:23:48.641Z,3.78
2022-11-25T08:26:31.270Z,3.60
2022-11-25T08:28:59.295Z,4.18
2022-11-25T08:31:28.888Z,3.70
2022-11-25T08:33:56.350Z,3.70
2022-11-25T08:36:24.039Z,3.15
2022-11-25T08:38:53.196Z,3.72
2022-11-25T08:41:24.915Z,6.75
2022-11-25T08:43:52.105Z,2.75
2022-11-25T08:46:25.479Z,4.68
2022-11-25T08:48:52.562Z,3.00
2022-11-25T08:51:23.028Z,3.97
2022-11-25T08:53:51.250Z,4.38
2022-11-25T08:56:24.310Z,2.73
2022-11-25T08:58:52.579Z,3.72
2022-11-25T09:01:19.783Z,4.72
2022-11-25T09:03:49.921Z,4.25
2022-11-25T09:06:18.026Z,2.95
2022-11-25T09:08:45.912Z,4.80
2022-11-25T09:11:14.376Z,5.30
2022-11-25T09:13:41.099Z,4.10
2022-11-25T09:16:09.308Z,5.15
2022-11-25T09:18:37.129Z,4.72
2022-11-25T09:21:12.128Z,4.57
2022-11-25T09:23:39.539Z,4.38
2022-11-25T09:26:07.550Z,5.60
2022-11-25T09:28:34.950Z,5.00
2022-11-25T09:31:08.535Z,4.72
2022-11-25T09:33:35.655Z,5.15
2022-11-25T09:36:03.328Z,2.70
2022-11-25T09:38:30.119Z,5.28
2022-11-25T09:41:45.481Z,4.20
2022-11-25T09:44:39.724Z,3.43
2022-11-25T09:47:36.259Z,3.70
2022-11-25T09:50:24.881Z,3.05
2022-11-25T09:53:38.450Z,3.50
2022-11-25T09:56:12.579Z,1.63
2022-11-25T09:58:47.723Z,3.85
2022-11-25T10:01:18.872Z,4.18
2022-11-25T10:03:54.692Z,2.50
2022-11-25T10:06:32.269Z,1.38
2022-11-25T10:09:09.699Z,2.40
2022-11-25T10:11:51.237Z,1.80
2022-11-25T10:14:54.288Z,3.10
2022-11-25T10:17:27.218Z,3.58
2022-11-25T10:20:14.679Z,2.88
2022-11-25T10:22:44.230Z,1.55
2022-11-25T10:25:23.172Z,3.35
2022-11-25T10:27:52.727Z,2.47
2022-11-25T10:30:24.185Z,1.92
2022-11-25T10:33:12.707Z,2.35
2022-11-25T10:35:46.468Z,2.97
2022-11-25T10:38:19.838Z,2.15
2022-11-25T10:40:50.602Z,1.40
2022-11-25T10:43:17.315Z,1.85
2022-11-25T10:46:06.653Z,2.40
2022-11-25T10:48:41.296Z,1.92
2022-11-25T10:51:33.721Z,2.72
2022-11-25T10:54:26.938Z,1.30
2022-11-25T10:57:02.524Z,2.13
2022-11-25T11:02:29.867Z,2.10
2022-11-25T11:05:08.612Z,2.55
2022-11-25T11:07:41.239Z,2.33
2022-11-25T11:10:28.240Z,1.50
2022-11-25T11:13:05.094Z,2.40
2022-11-25T11:15:44.268Z,1.83
2022-11-25T11:18:27.659Z,1.98
2022-11-25T11:21:00.138Z,2.15
2022-11-25T11:23:28.405Z,2.08
2022-11-25T11:25:56.878Z,1.83
2022-11-25T11:28:41.316Z,1.08
2022-11-25T11:31:25.571Z,2.30
2022-11-25T11:33:55.000Z,1.53
2022-11-25T11:36:55.734Z,2.13
2022-11-25T11:39:37.686Z,2.03
2022-11-25T11:42:07.022Z,1.48
2022-11-25T11:44:52.138Z,2.50
2022-11-25T11:50:20.889Z,2.17
2022-11-25T11:53:09.171Z,1.52
2022-11-25T11:56:33.048Z,2.40
2022-11-25T11:58:55.226Z,1.80
2022-11-25T12:01:27.240Z,2.25
2022-11-25T12:04:08.725Z,2.08
2022-11-25T12:06:38.405Z,1.98
2022-11-25T12:09:13.289Z,3.25
2022-11-25T12:11:45.961Z,2.17
2022-11-25T12:14:41.642Z,2.22
2022-11-25T12:17:23.395Z,1.98
2022-11-25T12:20:15.628Z,3.10
2022-11-25T12:22:57.888Z,1.10
2022-11-25T12:25:31.038Z,2.50
2022-11-25T12:28:07.432Z,3.67
2022-11-25T12:31:12.562Z,3.22
2022-11-25T12:34:01.943Z,2.17
2022-11-25T12:36:36.027Z,2.25
2022-11-25T12:39:21.359Z,3.47
2022-11-25T12:41:54.116Z,2.30
2022-11-25T12:44:39.769Z,2.40
2022-11-25T12:47:10.508Z,2.03
2022-11-25T12:49:48.299Z,2.80
2022-11-25T12:52:29.162Z,1.70
2022-11-25T12:55:20.905Z,1.58
2022-11-25T12:58:07.091Z,2.00
2022-11-25T13:00:46.531Z,2.58
2022-11-25T13:03:41.022Z,1.67
2022-11-25T13:06:32.021Z,3.55
2022-11-25T13:09:21.491Z,2.05
2022-11-25T13:11:59.104Z,2.72
2022-11-25T13:14:51.844Z,1.73
2022-11-25T13:17:19.521Z,2.38
2022-11-25T13:19:46.469Z,2.08
2022-11-25T13:22:22.197Z,3.30
2022-11-25T13:24:49.191Z,2.38
2022-11-25T13:27:31.517Z,2.70
2022-11-25T13:29:59.335Z,2.63
2022-11-25T13:32:31.055Z,2.03
2022-11-25T13:35:22.445Z,2.10
2022-11-25T13:37:49.717Z,2.38
2022-11-25T13:40:38.267Z,3.08
2022-11-25T13:43:06.054Z,2.85
2022-11-25T13:45:39.047Z,2.33
2022-11-25T13:48:28.002Z,3.22
2022-11-25T13:51:18.725Z,2.92
2022-11-25T13:53:58.317Z,3.78
2022-11-25T13:56:29.706Z,2.25
2022-11-25T13:59:11.701Z,3.08
2022-11-25T14:01:42.711Z,1.80
2022-11-25T14:04:12.580Z,2.22
2022-11-25T14:07:20.071Z,2.78
2022-11-25T14:10:10.624Z,2.63
2022-11-25T14:12:45.919Z,2.45
2022-11-25T14:15:52.086Z,3.20
2022-11-25T14:22:08.674Z,2.70
2022-11-25T14:24:43.195Z,2.83
2022-11-25T14:27:36.421Z,1.73
2022-11-25T14:30:09.051Z,3.75
2022-11-25T14:32:44.618Z,2.75
2022-11-25T14:35:24.425Z,2.83
2022-11-25T14:37:58.326Z,2.72
2022-11-25T14:40:34.843Z,3.17
2022-11-25T14:43:39.254Z,3.00
2022-11-25T14:46:10.658Z,3.15
2022-11-25T14:48:37.499Z,2.42
2022-11-25T14:51:12.023Z,2.33
2022-11-25T14:53:47.776Z,3.33
2022-11-25T14:56:29.718Z,2.30
2022-11-25T14:58:58.447Z,1.88
2022-11-25T15:01:33.990Z,2.55
2022-11-25T15:04:04.719Z,2.63
2022-11-25T15:06:36.647Z,1.80
2022-11-25T15:09:17.068Z,3.28
2022-11-25T15:11:43.946Z,3.03
2022-11-25T15:14:24.255Z,2.90
2022-11-25T15:16:51.803Z,2.38
2022-11-25T15:19:21.472Z,2.83
2022-11-25T15:22:21.889Z,3.25
2022-11-25T15:24:48.950Z,3.20
2022-11-25T15:27:25.712Z,3.45
2022-11-25T15:29:53.349Z,2.53
2022-11-25T15:32:26.138Z,3.00
2022-11-25T15:34:55.840Z,4.38
2022-11-25T15:37:24.030Z,3.13
2022-11-25T15:40:11.023Z,2.65
2022-11-25T15:42:37.831Z,2.72
2022-11-25T15:45:19.741Z,3.13
2022-11-25T15:47:46.552Z,2.95
2022-11-25T15:50:23.642Z,2.40
2022-11-25T15:52:54.363Z,3.47
2022-11-25T15:55:41.327Z,2.60
2022-11-25T15:58:17.144Z,2.83
2022-11-25T16:01:03.823Z,3.10
2022-11-25T16:03:35.186Z,2.90
2022-11-25T16:06:03.177Z,2.20
2022-11-25T16:08:35.147Z,2.60
2022-11-25T16:11:12.353Z,2.53
2022-11-25T16:13:39.819Z,2.55
2022-11-25T16:16:19.033Z,2.90
2022-11-25T16:19:12.772Z,3.15
2022-11-25T16:21:43.905Z,2.70
2022-11-25T16:24:40.707Z,2.22
2022-11-25T16:27:17.692Z,2.60
2022-11-25T16:29:56.411Z,2.55
2022-11-25T16:32:26.522Z,2.78
2022-11-25T16:34:56.575Z,2.95
2022-11-25T16:37:24.169Z,3.25
2022-11-25T16:39:50.837Z,2.78
2022-11-25T16:42:20.604Z,3.20
2022-11-25T16:44:50.045Z,3.30
2022-11-25T16:47:18.654Z,2.55
2022-11-25T16:49:46.454Z,4.32
2022-11-25T16:52:13.559Z,3.92
2022-11-25T16:54:40.998Z,3.38
2022-11-25T16:57:12.238Z,2.92
2022-11-25T16:59:41.864Z,3.55
2022-11-25T17:02:22.388Z,3.78
2022-11-25T17:04:50.058Z,6.43
2022-11-25T17:07:33.766Z,3.13
2022-11-25T17:10:00.753Z,3.58
2022-11-25T17:12:30.977Z,3.88
2022-11-25T17:15:00.199Z,4.38
2022-11-25T17:17:27.661Z,3.67
2022-11-25T17:19:54.920Z,3.55
2022-11-25T17:22:25.305Z,2.78
2022-11-25T17:24:52.434Z,4.07
2022-11-25T17:27:26.792Z,3.70
2022-11-25T17:29:55.587Z,3.45
2022-11-25T17:32:23.578Z,2.58
2022-11-25T17:34:53.526Z,3.13
2022-11-25T17:37:23.124Z,3.58
2022-11-25T17:39:52.711Z,2.72
2022-11-25T17:42:23.707Z,3.20
2022-11-25T17:44:54.167Z,2.95
2022-11-25T17:47:21.086Z,2.75
2022-11-25T17:49:49.365Z,2.30
2022-11-25T17:52:16.356Z,2.38
2022-11-25T17:54:43.057Z,2.92
2022-11-25T17:57:19.727Z,2.33
2022-11-25T17:59:46.506Z,2.50
2022-11-25T18:02:18.955Z,3.63
2022-11-25T18:04:46.223Z,3.60
2022-11-25T18:07:12.981Z,4.45
2022-11-25T18:09:39.873Z,3.95
2022-11-25T18:12:13.378Z,3.10
2022-11-25T18:14:42.818Z,2.83
2022-11-25T18:17:15.890Z,2.30
2022-11-25T18:19:42.744Z,2.25
2022-11-25T18:22:14.456Z,1.98
2022-11-25T18:24:41.459Z,1.85
2022-11-25T18:27:17.993Z,1.90
2022-11-25T18:29:44.607Z,2.25
2022-11-25T18:32:11.391Z,2.20
2022-11-25T18:34:38.450Z,2.03
2022-11-25T18:37:05.322Z,1.77
2022-11-25T18:39:31.876Z,2.35
2022-11-25T18:42:00.063Z,1.65
2022-11-25T18:44:31.638Z,2.05
2022-11-25T18:46:58.396Z,2.67
2022-11-25T18:49:25.038Z,1.85
2022-11-25T18:51:51.765Z,1.75
2022-11-25T18:54:18.514Z,2.10
2022-11-25T18:56:46.667Z,2.33
2022-11-25T18:59:17.199Z,2.58
2022-11-25T19:01:49.405Z,2.92
2022-11-25T19:04:16.640Z,2.65
2022-11-25T19:06:44.289Z,3.10
2022-11-25T19:09:12.306Z,3.80
2022-11-25T19:11:46.027Z,3.30
2022-11-25T19:14:32.252Z,2.72
2022-11-25T19:17:06.205Z,4.55
2022-11-25T19:19:33.200Z,5.43
2022-11-25T19:22:01.367Z,4.32
2022-11-25T19:24:28.624Z,4.35
2022-11-25T19:26:57.225Z,3.58
2022-11-25T19:29:41.482Z,4.07
2022-11-25T19:32:19.263Z,3.53
2022-11-25T19:34:50.534Z,4.25
2022-11-25T19:37:20.333Z,3.85
2022-11-25T19:39:51.701Z,4.40
2022-11-25T19:42:18.857Z,4.38
2022-11-25T19:44:46.530Z,3.95
2022-11-25T19:47:25.208Z,3.20
2022-11-25T19:49:55.860Z,2.88
2022-11-25T19:52:30.549Z,3.05
2022-11-25T19:57:24.785Z,2.35
2022-11-25T19:59:51.377Z,2.40
2022-11-25T20:02:21.657Z,2.40
2022-11-25T20:04:51.258Z,2.65
2022-11-25T20:07:20.613Z,2.40
2022-11-25T20:09:48.265Z,2.70
2022-11-25T20:12:20.109Z,2.53
2022-11-25T20:14:46.981Z,2.95
2022-11-25T20:17:24.634Z,2.58
2022-11-25T20:19:53.518Z,2.53
2022-11-25T20:22:26.594Z,3.05
2022-11-25T20:24:54.927Z,2.58
2022-11-25T20:27:26.649Z,2.58
2022-11-25T20:29:53.564Z,2.72
2022-11-25T20:32:30.180Z,3.33
2022-11-25T20:34:58.579Z,2.58
2022-11-25T20:37:27.801Z,2.97
2022-11-25T20:39:59.190Z,3.10
2022-11-25T20:42:27.010Z,2.85
2022-11-25T20:44:57.473Z,2.42
2022-11-25T20:47:26.100Z,3.13
2022-11-25T20:49:53.566Z,2.22
2022-11-25T20:52:31.100Z,2.70
2022-11-25T20:54:58.211Z,1.73
2022-11-25T20:57:25.239Z,3.08
2022-11-25T20:59:51.838Z,4.30
2022-11-25T21:02:21.560Z,2.53
2022-11-25T21:04:48.391Z,2.80
2022-11-25T21:07:15.775Z,2.88
2022-11-25T21:09:43.527Z,3.42
2022-11-25T21:12:18.791Z,2.80
2022-11-25T21:14:46.481Z,3.10
2022-11-25T21:17:13.074Z,3.65
2022-11-25T21:19:39.826Z,3.00
2022-11-25T21:22:06.636Z,3.45
2022-11-25T21:24:38.115Z,3.38
2022-11-25T21:27:14.056Z,3.70
2022-11-25T21:29:42.643Z,2.92
2022-11-25T21:32:24.686Z,3.33
2022-11-25T21:34:51.780Z,3.00
2022-11-25T21:37:26.459Z,3.30
2022-11-25T21:42:21.435Z,3.10
2022-11-25T21:44:50.149Z,3.97
2022-11-25T21:47:22.236Z,3.72
2022-11-25T21:49:49.530Z,3.15
2022-11-25T21:52:17.399Z,4.30
2022-11-25T21:54:45.184Z,4.70
2022-11-25T21:57:27.266Z,5.82
2022-11-25T21:59:54.230Z,6.28
2022-11-25T22:02:23.401Z,4.45
2022-11-25T22:04:50.778Z,4.20
2022-11-25T22:07:17.780Z,3.92
2022-11-25T22:09:44.608Z,4.80
2022-11-25T22:12:27.362Z,4.88
2022-11-25T22:14:54.719Z,5.13
2022-11-25T22:17:21.494Z,4.93
2022-11-25T22:19:48.229Z,4.55
2022-11-25T22:22:16.653Z,5.05
2022-11-25T22:24:43.387Z,5.30
2022-11-25T22:27:23.245Z,4.55
2022-11-25T22:29:50.482Z,5.68
2022-11-25T22:32:18.047Z,5.13
2022-11-25T22:34:45.115Z,5.25
2022-11-25T22:37:22.384Z,4.95
2022-11-25T22:39:49.442Z,4.38
2022-11-25T22:42:36.573Z,3.97
2022-11-25T22:45:06.494Z,4.43
2022-11-25T22:47:42.327Z,4.65
2022-11-25T22:50:26.255Z,5.07
2022-11-25T22:52:53.948Z,4.97
2022-11-25T22:55:26.628Z,4.68
2022-11-25T22:57:55.645Z,5.20
2022-11-25T23:00:26.654Z,3.70
2022-11-25T23:02:56.512Z,5.30
2022-11-25T23:05:30.718Z,3.92
2022-11-25T23:07:59.883Z,4.68
2022-11-25T23:10:29.679Z,4.90
2022-11-25T23:12:56.774Z,4.63
2022-11-25T23:15:24.414Z,4.88
2022-11-25T23:17:55.974Z,4.68
2022-11-25T23:20:24.859Z,3.88
2022-11-25T23:22:51.494Z,3.33
2022-11-25T23:25:20.781Z,4.10
2022-11-25T23:27:48.227Z,3.78
2022-11-25T23:30:20.939Z,4.05
2022-11-25T23:32:51.063Z,4.05
2022-11-25T23:35:29.918Z,3.70
2022-11-25T23:37:57.727Z,3.55
2022-11-25T23:40:25.654Z,3.78
2022-11-25T23:42:55.334Z,3.80
2022-11-25T23:45:25.536Z,3.70
2022-11-25T23:47:54.206Z,4.05
2022-11-25T23:50:32.233Z,3.88
2022-11-25T23:53:03.237Z,3.88
2022-11-25T23:55:34.163Z,4.20
2022-11-25T23:58:03.307Z,5.13
